KLSF/LSF METAR and TAF weather

Enter ICAO airport designator
Station Type Date Time Source
KLSF METAR 2022/11/30 17:55 UTC NOAA

KLSF 301755Z AUTO 27004KT 10SM FEW031 20/17 A3008 RMK AO2 SLP190 60059 T02040168 10204 20163 50006 CHINO RWY15 $


Station Type Date Time Source
KLSF Decoded METAR 2022/11/30 17:55 UTC NOAA

Fort Benning, GA, United States (KLSF) 32-20N 084-50W 130M
Nov 30, 2022 - 12:55 PM EST / 2022.11.30 1755 UTC
Wind: from the W (270 degrees) at 5 MPH (4 KT):0
Visibility: 10 mile(s):0
Sky conditions: mostly clear
Temperature: 68.7 F (20.4 C)
Dew Point: 62.2 F (16.8 C)
Relative Humidity: 79%
Pressure (altimeter): 30.08 in. Hg (1018 hPa)
Pressure tendency: 0.02 inches (0.6 hPa) higher than three hours ago
ob: KLSF 301755Z AUTO 27004KT 10SM FEW031 20/17 A3008 RMK AO2 SLP190 60059 T02040168 10204 20163 50006 CHINO RWY15
cycle: 18

Station Type Date Time Source
KLSF TAF 2022/11/30 14:20 UTC NOAA

TAF KLSF 301405Z 3014/0120 14005KT 9999 VCSH FEW006 BKN012 OVC020 510103 QNH3001INS
TEMPO 3014/3016 31010KT 9999 -SHRA BKN006
BECMG 3015/3016 31010G15KT 9999 NSW SCT012 BKN020 OVC030 QNH3003INS
BECMG 3016/3017 32012G21KT 9999 NSW FEW035 QNH3008INS
BECMG 3021/3022 33011KT 9999 SKC QNH3017INS
BECMG 0102/0103 34008KT 9999 SKC QNH3029INS
BECMG 0109/0110 34005KT 9999 SKC QNH3036INS TX18/3015Z TNM02/0112Z

Example: see airport list